JP-0086 weather

Niihama Heliport
Niihama, Ehime Prefecture, Japan

Public forecast

Using degrees Celsius for public forecast. Weather courtesy of forecast.io.

METAR (pilot weather report)

Closest report is Kōchi Ryōma Airport, 30.5 nm (56.4 km) SE. Retrieved 2019/05/21 10:00 UTC (54 minutes ago):

RJOK 211000Z VRB02KT CAVOK 21/12 Q1004

TAF (pilot weather forecast)

Closest forecast is Kōchi Ryōma Airport, 30.5 nm (56.4 km) SE. Retrieved 2019/05/21 06:00 UTC (5 hours ago):

TAF RJOK 210505Z 2106/2212 35013KT 9999 FEW035 BECMG 2200/2203 18008KT BECMG 2209/2212 35005KT